createdAt,value
2022-09-24T00:02:47.113Z,4.63
2022-09-24T00:07:48.767Z,5.45
2022-09-24T00:12:52.081Z,6.68
2022-09-24T00:17:53.597Z,5.00
2022-09-24T00:22:55.119Z,4.90
2022-09-24T00:27:56.636Z,4.55
2022-09-24T00:32:58.156Z,5.00
2022-09-24T00:37:59.792Z,4.57
2022-09-24T00:43:01.666Z,5.03
2022-09-24T00:48:03.230Z,6.03
2022-09-24T00:53:10.981Z,6.43
2022-09-24T00:58:13.315Z,5.53
2022-09-24T01:03:18.909Z,6.07
2022-09-24T01:08:21.139Z,6.78
2022-09-24T01:13:49.856Z,4.95
2022-09-24T01:19:09.269Z,4.93
2022-09-24T01:24:49.332Z,9.93
2022-09-24T01:30:08.284Z,6.40
2022-09-24T01:35:16.396Z,5.15
2022-09-24T01:40:19.066Z,4.80
2022-09-24T01:45:21.383Z,4.63
2022-09-24T01:50:24.694Z,4.63
2022-09-24T01:55:28.973Z,4.45
2022-09-24T02:00:30.582Z,4.65
2022-09-24T02:05:39.629Z,4.75
2022-09-24T02:10:48.195Z,4.57
2022-09-24T02:15:51.084Z,4.85
2022-09-24T02:20:53.635Z,4.55
2022-09-24T02:26:02.423Z,4.95
2022-09-24T02:31:14.005Z,4.22
2022-09-24T02:36:24.890Z,5.30
2022-09-24T02:41:27.170Z,4.50
2022-09-24T02:46:28.935Z,6.70
2022-09-24T02:51:30.537Z,5.90
2022-09-24T02:56:32.198Z,5.68
2022-09-24T03:01:34.460Z,4.38
2022-09-24T03:06:36.864Z,5.53
2022-09-24T03:11:38.589Z,5.72
2022-09-24T03:16:40.119Z,6.05
2022-09-24T03:21:41.679Z,4.63
2022-09-24T03:26:43.182Z,5.22
2022-09-24T03:31:44.789Z,4.28
2022-09-24T03:36:47.453Z,4.78
2022-09-24T03:41:48.990Z,5.75
2022-09-24T03:46:50.563Z,5.43
2022-09-24T03:51:52.135Z,5.82
2022-09-24T03:56:53.649Z,5.03
2022-09-24T04:01:55.333Z,5.68
2022-09-24T04:06:57.172Z,5.47
2022-09-24T04:11:59.153Z,4.30
2022-09-24T04:17:00.773Z,5.15
2022-09-24T04:22:02.374Z,4.97
2022-09-24T04:27:04.094Z,4.60
2022-09-24T04:32:05.615Z,5.55
2022-09-24T04:37:07.185Z,4.90
2022-09-24T04:42:08.719Z,5.25
2022-09-24T04:47:11.472Z,7.03
2022-09-24T04:52:16.410Z,5.03
2022-09-24T04:57:18.002Z,4.63
2022-09-24T05:02:19.677Z,4.85
2022-09-24T05:07:21.274Z,7.20
2022-09-24T05:12:22.814Z,5.05
2022-09-24T05:17:24.421Z,4.93
2022-09-24T05:22:30.162Z,6.50
2022-09-24T05:27:31.754Z,4.82
2022-09-24T05:32:34.033Z,5.07
2022-09-24T05:37:36.652Z,5.07
2022-09-24T05:42:38.185Z,5.00
2022-09-24T05:47:39.707Z,5.20
2022-09-24T05:52:41.318Z,6.47
2022-09-24T05:57:42.887Z,6.80
2022-09-24T06:02:44.462Z,5.15
2022-09-24T06:07:46.084Z,5.25
2022-09-24T06:12:47.828Z,5.20
2022-09-24T06:17:49.354Z,5.32
2022-09-24T06:22:50.921Z,5.53
2022-09-24T06:28:00.495Z,8.68
2022-09-24T06:33:07.217Z,6.15
2022-09-24T06:38:11.009Z,7.90
2022-09-24T06:43:13.541Z,6.15
2022-09-24T06:48:15.160Z,7.22
2022-09-24T06:53:16.734Z,6.80
2022-09-24T06:58:22.406Z,5.45
2022-09-24T07:03:24.020Z,6.22
2022-09-24T07:08:25.644Z,6.63
2022-09-24T07:13:27.250Z,7.38
2022-09-24T07:18:28.899Z,5.20
2022-09-24T07:23:30.415Z,5.22
2022-09-24T07:28:32.115Z,4.78
2022-09-24T07:33:33.721Z,5.05
2022-09-24T07:38:36.425Z,5.45
2022-09-24T07:43:38.582Z,5.43
2022-09-24T07:48:40.133Z,6.88
2022-09-24T07:53:41.647Z,5.75
2022-09-24T07:58:43.445Z,5.78
2022-09-24T08:03:46.410Z,5.35
2022-09-24T08:08:52.999Z,4.88
2022-09-24T08:13:55.964Z,4.90
2022-09-24T08:18:57.455Z,4.55
2022-09-24T08:23:58.956Z,4.57
2022-09-24T08:29:00.453Z,5.85
2022-09-24T08:34:01.990Z,4.53
2022-09-24T08:39:03.606Z,4.75
2022-09-24T08:44:12.289Z,4.50
2022-09-24T08:49:18.523Z,6.00
2022-09-24T08:54:20.882Z,12.70
2022-09-24T08:59:33.095Z,5.53
2022-09-24T09:04:57.909Z,4.22
2022-09-24T09:10:05.888Z,5.78
2022-09-24T09:15:19.644Z,4.78
2022-09-24T09:20:26.442Z,5.00
2022-09-24T09:25:31.561Z,6.45
2022-09-24T09:30:53.707Z,6.05
2022-09-24T09:36:12.327Z,4.25
2022-09-24T09:41:54.336Z,4.38
2022-09-24T09:47:25.264Z,4.40
2022-09-24T09:52:28.689Z,4.75
2022-09-24T09:57:30.316Z,4.47
2022-09-24T10:02:35.339Z,4.57
2022-09-24T10:07:44.956Z,4.25
2022-09-24T10:12:46.749Z,4.22
2022-09-24T10:17:50.523Z,4.68
2022-09-24T10:22:54.997Z,5.57
2022-09-24T10:28:20.197Z,4.35
2022-09-24T10:33:21.877Z,3.90
2022-09-24T10:38:24.852Z,4.38
2022-09-24T10:43:26.387Z,4.10
2022-09-24T10:48:35.961Z,3.58
2022-09-24T10:54:18.889Z,4.85
2022-09-24T10:59:42.415Z,3.60
2022-09-24T11:05:00.785Z,3.28
2022-09-24T11:10:20.336Z,3.30
2022-09-24T11:15:53.390Z,2.90
2022-09-24T11:21:28.598Z,3.03
2022-09-24T11:26:54.219Z,3.10
2022-09-24T11:32:06.846Z,3.67
2022-09-24T11:37:39.865Z,3.60
2022-09-24T11:43:18.429Z,3.22
2022-09-24T11:48:19.843Z,2.97
2022-09-24T11:53:27.313Z,10.40
2022-09-24T11:58:32.154Z,4.05
2022-09-24T12:03:44.963Z,2.95
2022-09-24T12:08:57.055Z,3.10
2022-09-24T12:14:05.665Z,2.72
2022-09-24T12:19:21.398Z,3.28
2022-09-24T12:24:33.303Z,5.57
2022-09-24T12:30:18.226Z,7.00
2022-09-24T12:35:28.835Z,3.38
2022-09-24T12:40:41.424Z,3.60
2022-09-24T12:45:43.089Z,3.60
2022-09-24T12:50:56.635Z,2.95
2022-09-24T12:56:02.260Z,3.42
2022-09-24T13:01:25.103Z,2.88
2022-09-24T13:06:35.381Z,3.08
2022-09-24T13:11:37.592Z,2.95
2022-09-24T13:16:41.189Z,3.75
2022-09-24T13:21:43.970Z,3.65
2022-09-24T13:26:45.531Z,4.03
2022-09-24T13:31:51.137Z,3.08
2022-09-24T13:37:02.489Z,2.83
2022-09-24T13:42:31.596Z,2.83
2022-09-24T13:47:46.460Z,4.10
2022-09-24T13:53:04.586Z,5.30
2022-09-24T13:58:06.158Z,4.30
2022-09-24T14:03:19.240Z,5.35
2022-09-24T14:08:23.146Z,3.10
2022-09-24T14:13:25.104Z,3.08
2022-09-24T14:18:28.289Z,3.80
2022-09-24T14:23:34.203Z,3.08
2022-09-24T14:28:35.808Z,2.53
2022-09-24T14:33:37.774Z,2.65
2022-09-24T14:38:53.911Z,5.88
2022-09-24T14:44:06.134Z,4.60
2022-09-24T14:49:28.485Z,2.50
2022-09-24T14:54:42.562Z,2.10
2022-09-24T14:59:45.390Z,2.38
2022-09-24T15:04:50.122Z,3.88
2022-09-24T15:09:53.999Z,2.33
2022-09-24T15:15:00.812Z,2.38
2022-09-24T15:20:04.047Z,2.90
2022-09-24T15:25:06.103Z,4.25
2022-09-24T15:30:10.470Z,3.50
2022-09-24T15:35:15.015Z,3.25
2022-09-24T15:40:24.738Z,3.53
2022-09-24T15:45:26.373Z,3.42
2022-09-24T15:50:27.942Z,3.58
2022-09-24T15:55:30.962Z,4.70
2022-09-24T16:00:33.256Z,8.52
2022-09-24T16:05:34.864Z,5.57
2022-09-24T16:10:36.739Z,6.55
2022-09-24T16:15:38.795Z,5.55
2022-09-24T16:20:40.853Z,7.72
2022-09-24T16:25:49.542Z,5.68
2022-09-24T16:30:51.265Z,5.70
2022-09-24T16:35:52.897Z,5.55
2022-09-24T16:41:00.715Z,6.03
2022-09-24T16:46:08.220Z,6.00
2022-09-24T16:51:11.594Z,6.30
2022-09-24T16:56:15.290Z,6.90
2022-09-24T17:01:19.268Z,7.25
2022-09-24T17:06:23.422Z,6.18
2022-09-24T17:11:24.959Z,9.65
2022-09-24T17:16:27.167Z,7.05
2022-09-24T17:21:28.984Z,8.10
2022-09-24T17:26:30.594Z,7.90
2022-09-24T17:31:32.193Z,8.18
2022-09-24T17:36:34.537Z,8.02
2022-09-24T17:41:36.175Z,9.73
2022-09-24T17:46:37.979Z,8.80
2022-09-24T17:51:39.788Z,8.48
2022-09-24T17:56:41.900Z,8.27
2022-09-24T18:01:44.241Z,8.43
2022-09-24T18:06:46.862Z,10.60
2022-09-24T18:11:50.215Z,8.07
2022-09-24T18:16:52.028Z,8.23
2022-09-24T18:21:54.588Z,9.55
2022-09-24T18:26:56.428Z,8.50
2022-09-24T18:31:57.957Z,8.20
2022-09-24T18:36:59.452Z,9.27
2022-09-24T18:42:01.034Z,9.75
2022-09-24T18:47:02.904Z,8.45
2022-09-24T18:52:04.481Z,10.15
2022-09-24T18:57:06.042Z,9.88
2022-09-24T19:02:08.466Z,8.77
2022-09-24T19:07:10.168Z,9.07
2022-09-24T19:12:12.743Z,9.82
2022-09-24T19:17:14.768Z,9.70
2022-09-24T19:22:16.310Z,10.52
2022-09-24T19:27:17.812Z,11.82
2022-09-24T19:32:19.318Z,10.98
2022-09-24T19:37:20.846Z,12.40
2022-09-24T19:42:22.907Z,12.00
2022-09-24T19:47:25.669Z,12.52
2022-09-24T19:52:27.213Z,12.02
2022-09-24T19:57:28.799Z,12.35
2022-09-24T20:02:30.414Z,11.07
2022-09-24T20:07:32.161Z,11.82
2022-09-24T20:12:34.764Z,11.88
2022-09-24T20:17:36.312Z,11.70
2022-09-24T20:22:37.975Z,12.82
2022-09-24T20:27:51.617Z,12.25
2022-09-24T20:32:53.101Z,9.25
2022-09-24T20:37:54.762Z,8.40
2022-09-24T20:42:56.300Z,9.38
2022-09-24T20:47:57.879Z,9.00
2022-09-24T20:52:59.431Z,9.30
2022-09-24T20:58:00.941Z,9.07
2022-09-24T21:03:15.458Z,8.18
2022-09-24T21:08:21.709Z,8.73
2022-09-24T21:13:24.522Z,8.55
2022-09-24T21:18:31.057Z,9.48
2022-09-24T21:23:40.077Z,10.18
2022-09-24T21:28:43.494Z,8.68
2022-09-24T21:33:46.911Z,11.25
2022-09-24T21:38:55.870Z,10.13
2022-09-24T21:43:57.848Z,10.85
2022-09-24T21:49:00.553Z,8.85
2022-09-24T21:54:04.159Z,9.77
2022-09-24T21:59:38.111Z,8.85
2022-09-24T22:04:39.699Z,9.90
2022-09-24T22:09:41.243Z,8.93
2022-09-24T22:14:44.842Z,8.75
2022-09-24T22:19:47.218Z,9.25
2022-09-24T22:24:48.806Z,8.82
2022-09-24T22:29:50.351Z,9.82
2022-09-24T22:35:10.597Z,9.60
2022-09-24T22:40:12.401Z,10.18
2022-09-24T22:45:14.017Z,9.80
2022-09-24T22:50:15.535Z,10.27
2022-09-24T22:55:17.067Z,10.13
2022-09-24T23:00:18.907Z,10.00
2022-09-24T23:05:20.487Z,10.43
2022-09-24T23:10:22.618Z,11.35
2022-09-24T23:15:25.462Z,10.15
2022-09-24T23:20:27.328Z,10.75
2022-09-24T23:25:28.881Z,10.85
2022-09-24T23:30:31.406Z,11.88
2022-09-24T23:35:32.932Z,11.02
2022-09-24T23:40:34.554Z,11.68
2022-09-24T23:45:36.173Z,10.43
2022-09-24T23:50:38.095Z,9.98
2022-09-24T23:55:42.601Z,9.30
